sensor_id;sensor_type;location;lat;lon;timestamp;P1;durP1;ratioP1;P2;durP2;ratioP2
67181;SDS011;54114;53.524;49.396;2023-04-09T00:00:13;0.00;;;0.00;;
67181;SDS011;54114;53.524;49.396;2023-04-09T00:02:40;0.00;;;0.00;;
67181;SDS011;54114;53.524;49.396;2023-04-09T00:05:07;0.20;;;0.10;;
67181;SDS011;54114;53.524;49.396;2023-04-09T00:07:33;1.55;;;0.90;;
67181;SDS011;54114;53.524;49.396;2023-04-09T00:10:00;1.52;;;0.60;;
67181;SDS011;54114;53.524;49.396;2023-04-09T00:12:27;0.77;;;0.25;;
67181;SDS011;54114;53.524;49.396;2023-04-09T00:14:54;0.28;;;0.28;;
67181;SDS011;54114;53.524;49.396;2023-04-09T00:17:22;0.20;;;0.20;;
67181;SDS011;54114;53.524;49.396;2023-04-09T00:19:48;1.85;;;1.23;;
67181;SDS011;54114;53.524;49.396;2023-04-09T00:22:15;1.48;;;0.37;;
67181;SDS011;54114;53.524;49.396;2023-04-09T00:24:42;0.10;;;0.10;;
67181;SDS011;54114;53.524;49.396;2023-04-09T00:27:08;3.50;;;1.45;;
67181;SDS011;54114;53.524;49.396;2023-04-09T00:29:35;0.60;;;0.45;;
67181;SDS011;54114;53.524;49.396;2023-04-09T00:32:02;0.30;;;0.25;;
67181;SDS011;54114;53.524;49.396;2023-04-09T00:34:29;0.10;;;0.00;;
67181;SDS011;54114;53.524;49.396;2023-04-09T00:36:55;0.10;;;0.05;;
67181;SDS011;54114;53.524;49.396;2023-04-09T00:39:22;1.02;;;0.57;;
67181;SDS011;54114;53.524;49.396;2023-04-09T00:41:48;0.00;;;0.00;;
67181;SDS011;54114;53.524;49.396;2023-04-09T00:44:15;0.00;;;0.00;;
67181;SDS011;54114;53.524;49.396;2023-04-09T00:46:41;0.25;;;0.25;;
67181;SDS011;54114;53.524;49.396;2023-04-09T00:49:08;0.00;;;0.00;;
67181;SDS011;54114;53.524;49.396;2023-04-09T00:51:35;0.00;;;0.00;;
67181;SDS011;54114;53.524;49.396;2023-04-09T00:54:03;0.10;;;0.00;;
67181;SDS011;54114;53.524;49.396;2023-04-09T00:56:29;0.30;;;0.30;;
67181;SDS011;54114;53.524;49.396;2023-04-09T00:58:56;0.15;;;0.00;;
67181;SDS011;54114;53.524;49.396;2023-04-09T01:01:24;1.27;;;0.57;;
67181;SDS011;54114;53.524;49.396;2023-04-09T01:03:50;0.00;;;0.00;;
67181;SDS011;54114;53.524;49.396;2023-04-09T01:06:21;0.80;;;0.52;;
67181;SDS011;54114;53.524;49.396;2023-04-09T01:09:17;0.65;;;0.62;;
67181;SDS011;54114;53.524;49.396;2023-04-09T01:15:24;1.30;;;0.70;;
67181;SDS011;54114;53.524;49.396;2023-04-09T01:18:01;0.00;;;0.00;;
67181;SDS011;54114;53.524;49.396;2023-04-09T01:21:21;0.00;;;0.00;;
67181;SDS011;54114;53.524;49.396;2023-04-09T01:29:19;1.20;;;0.75;;
67181;SDS011;54114;53.524;49.396;2023-04-09T01:31:48;1.95;;;0.45;;
67181;SDS011;54114;53.524;49.396;2023-04-09T01:34:15;0.68;;;0.43;;
67181;SDS011;54114;53.524;49.396;2023-04-09T01:36:44;0.10;;;0.10;;
67181;SDS011;54114;53.524;49.396;2023-04-09T01:39:20;5.00;;;1.15;;
67181;SDS011;54114;53.524;49.396;2023-04-09T01:41:47;0.90;;;0.70;;
67181;SDS011;54114;53.524;49.396;2023-04-09T01:44:15;0.52;;;0.22;;
67181;SDS011;54114;53.524;49.396;2023-04-09T01:46:45;8.60;;;0.65;;
67181;SDS011;54114;53.524;49.396;2023-04-09T01:49:12;2.20;;;1.17;;
67181;SDS011;54114;53.524;49.396;2023-04-09T01:51:40;3.47;;;1.52;;
67181;SDS011;54114;53.524;49.396;2023-04-09T01:54:08;0.15;;;0.15;;
67181;SDS011;54114;53.524;49.396;2023-04-09T01:56:44;0.00;;;0.00;;
67181;SDS011;54114;53.524;49.396;2023-04-09T01:59:12;2.05;;;0.73;;
67181;SDS011;54114;53.524;49.396;2023-04-09T02:01:43;2.55;;;0.80;;
67181;SDS011;54114;53.524;49.396;2023-04-09T02:04:17;0.00;;;0.00;;
67181;SDS011;54114;53.524;49.396;2023-04-09T02:07:05;0.65;;;0.55;;
67181;SDS011;54114;53.524;49.396;2023-04-09T02:09:39;2.10;;;0.93;;
67181;SDS011;54114;53.524;49.396;2023-04-09T02:12:11;0.28;;;0.28;;
67181;SDS011;54114;53.524;49.396;2023-04-09T02:14:42;0.25;;;0.20;;
67181;SDS011;54114;53.524;49.396;2023-04-09T02:17:11;0.90;;;0.55;;
67181;SDS011;54114;53.524;49.396;2023-04-09T02:19:39;8.10;;;0.35;;
67181;SDS011;54114;53.524;49.396;2023-04-09T02:22:10;0.17;;;0.17;;
67181;SDS011;54114;53.524;49.396;2023-04-09T02:24:37;1.27;;;0.52;;
67181;SDS011;54114;53.524;49.396;2023-04-09T02:27:05;0.32;;;0.13;;
67181;SDS011;54114;53.524;49.396;2023-04-09T02:29:32;0.35;;;0.25;;
67181;SDS011;54114;53.524;49.396;2023-04-09T02:31:58;1.58;;;0.60;;
67181;SDS011;54114;53.524;49.396;2023-04-09T02:34:25;29.20;;;2.22;;
67181;SDS011;54114;53.524;49.396;2023-04-09T02:36:53;5.85;;;1.23;;
67181;SDS011;54114;53.524;49.396;2023-04-09T02:39:19;2.00;;;1.20;;
67181;SDS011;54114;53.524;49.396;2023-04-09T02:41:46;0.00;;;0.00;;
67181;SDS011;54114;53.524;49.396;2023-04-09T02:44:12;0.03;;;0.00;;
67181;SDS011;54114;53.524;49.396;2023-04-09T02:46:39;0.10;;;0.10;;
67181;SDS011;54114;53.524;49.396;2023-04-09T02:49:06;0.00;;;0.00;;
67181;SDS011;54114;53.524;49.396;2023-04-09T02:51:33;0.40;;;0.30;;
67181;SDS011;54114;53.524;49.396;2023-04-09T02:54:01;0.00;;;0.00;;
67181;SDS011;54114;53.524;49.396;2023-04-09T02:56:28;0.00;;;0.00;;
67181;SDS011;54114;53.524;49.396;2023-04-09T02:58:55;0.15;;;0.05;;
67181;SDS011;54114;53.524;49.396;2023-04-09T03:01:21;0.28;;;0.17;;
67181;SDS011;54114;53.524;49.396;2023-04-09T03:03:48;0.52;;;0.37;;
67181;SDS011;54114;53.524;49.396;2023-04-09T03:06:15;0.47;;;0.43;;
67181;SDS011;54114;53.524;49.396;2023-04-09T03:08:42;0.00;;;0.00;;
67181;SDS011;54114;53.524;49.396;2023-04-09T03:11:09;0.20;;;0.20;;
67181;SDS011;54114;53.524;49.396;2023-04-09T03:13:36;0.30;;;0.30;;
67181;SDS011;54114;53.524;49.396;2023-04-09T03:16:02;0.10;;;0.10;;
67181;SDS011;54114;53.524;49.396;2023-04-09T03:18:29;0.28;;;0.28;;
67181;SDS011;54114;53.524;49.396;2023-04-09T03:20:56;0.40;;;0.20;;
67181;SDS011;54114;53.524;49.396;2023-04-09T03:23:22;8.30;;;2.60;;
67181;SDS011;54114;53.524;49.396;2023-04-09T03:25:58;0.10;;;0.10;;
67181;SDS011;54114;53.524;49.396;2023-04-09T03:28:26;0.40;;;0.13;;
67181;SDS011;54114;53.524;49.396;2023-04-09T03:30:53;2.65;;;1.23;;
67181;SDS011;54114;53.524;49.396;2023-04-09T03:33:20;0.55;;;0.22;;
67181;SDS011;54114;53.524;49.396;2023-04-09T03:35:46;1.45;;;0.70;;
67181;SDS011;54114;53.524;49.396;2023-04-09T03:38:13;1.30;;;0.52;;
67181;SDS011;54114;53.524;49.396;2023-04-09T03:40:40;2.92;;;1.50;;
67181;SDS011;54114;53.524;49.396;2023-04-09T03:43:07;1.10;;;0.93;;
67181;SDS011;54114;53.524;49.396;2023-04-09T03:45:33;1.00;;;0.98;;
67181;SDS011;54114;53.524;49.396;2023-04-09T03:48:00;0.45;;;0.45;;
67181;SDS011;54114;53.524;49.396;2023-04-09T03:50:27;1.23;;;1.12;;
67181;SDS011;54114;53.524;49.396;2023-04-09T03:52:53;3.00;;;0.95;;
67181;SDS011;54114;53.524;49.396;2023-04-09T03:55:20;1.98;;;1.10;;
67181;SDS011;54114;53.524;49.396;2023-04-09T03:57:47;10.80;;;3.50;;
67181;SDS011;54114;53.524;49.396;2023-04-09T04:00:13;0.30;;;0.30;;
67181;SDS011;54114;53.524;49.396;2023-04-09T04:02:40;12.18;;;3.60;;
67181;SDS011;54114;53.524;49.396;2023-04-09T04:05:07;1.02;;;0.88;;
67181;SDS011;54114;53.524;49.396;2023-04-09T04:07:34;0.05;;;0.03;;
67181;SDS011;54114;53.524;49.396;2023-04-09T04:10:02;9.57;;;2.90;;
67181;SDS011;54114;53.524;49.396;2023-04-09T04:12:32;10.35;;;3.28;;
67181;SDS011;54114;53.524;49.396;2023-04-09T04:14:59;8.10;;;3.58;;
67181;SDS011;54114;53.524;49.396;2023-04-09T04:17:26;11.57;;;3.90;;
67181;SDS011;54114;53.524;49.396;2023-04-09T04:19:53;15.25;;;3.03;;
67181;SDS011;54114;53.524;49.396;2023-04-09T04:22:20;7.70;;;3.10;;
67181;SDS011;54114;53.524;49.396;2023-04-09T04:24:46;8.88;;;3.37;;
67181;SDS011;54114;53.524;49.396;2023-04-09T04:27:13;7.95;;;2.53;;
67181;SDS011;54114;53.524;49.396;2023-04-09T04:29:40;4.80;;;2.30;;
67181;SDS011;54114;53.524;49.396;2023-04-09T04:32:06;8.25;;;2.80;;
67181;SDS011;54114;53.524;49.396;2023-04-09T04:34:33;11.02;;;2.33;;
67181;SDS011;54114;53.524;49.396;2023-04-09T04:37:00;10.45;;;2.37;;
67181;SDS011;54114;53.524;49.396;2023-04-09T04:39:26;4.55;;;2.20;;
67181;SDS011;54114;53.524;49.396;2023-04-09T04:41:53;9.00;;;2.47;;
67181;SDS011;54114;53.524;49.396;2023-04-09T04:44:20;7.25;;;2.40;;
67181;SDS011;54114;53.524;49.396;2023-04-09T04:46:46;6.12;;;1.83;;
67181;SDS011;54114;53.524;49.396;2023-04-09T04:49:13;6.40;;;2.45;;
67181;SDS011;54114;53.524;49.396;2023-04-09T04:51:39;6.25;;;1.90;;
67181;SDS011;54114;53.524;49.396;2023-04-09T04:54:06;12.07;;;2.03;;
67181;SDS011;54114;53.524;49.396;2023-04-09T04:56:33;5.57;;;2.17;;
67181;SDS011;54114;53.524;49.396;2023-04-09T04:58:59;14.82;;;2.03;;
67181;SDS011;54114;53.524;49.396;2023-04-09T05:01:26;3.47;;;1.80;;
67181;SDS011;54114;53.524;49.396;2023-04-09T05:03:53;7.47;;;3.22;;
67181;SDS011;54114;53.524;49.396;2023-04-09T05:06:19;6.15;;;2.22;;
67181;SDS011;54114;53.524;49.396;2023-04-09T05:08:46;9.60;;;2.03;;
67181;SDS011;54114;53.524;49.396;2023-04-09T05:11:13;4.53;;;1.75;;
67181;SDS011;54114;53.524;49.396;2023-04-09T05:13:41;5.22;;;1.48;;
67181;SDS011;54114;53.524;49.396;2023-04-09T05:16:07;3.03;;;1.77;;
67181;SDS011;54114;53.524;49.396;2023-04-09T05:18:42;3.85;;;1.77;;
67181;SDS011;54114;53.524;49.396;2023-04-09T05:21:09;4.72;;;2.00;;
67181;SDS011;54114;53.524;49.396;2023-04-09T05:23:36;3.58;;;1.73;;
67181;SDS011;54114;53.524;49.396;2023-04-09T05:26:02;7.10;;;1.70;;
67181;SDS011;54114;53.524;49.396;2023-04-09T05:28:29;4.10;;;1.83;;
67181;SDS011;54114;53.524;49.396;2023-04-09T05:30:56;4.00;;;2.15;;
67181;SDS011;54114;53.524;49.396;2023-04-09T05:33:23;3.97;;;2.40;;
67181;SDS011;54114;53.524;49.396;2023-04-09T05:35:50;10.07;;;2.50;;
67181;SDS011;54114;53.524;49.396;2023-04-09T05:38:16;5.30;;;2.08;;
67181;SDS011;54114;53.524;49.396;2023-04-09T05:40:43;12.80;;;2.40;;
67181;SDS011;54114;53.524;49.396;2023-04-09T05:43:10;5.05;;;2.60;;
67181;SDS011;54114;53.524;49.396;2023-04-09T05:45:37;13.52;;;3.12;;
67181;SDS011;54114;53.524;49.396;2023-04-09T05:48:04;14.57;;;2.78;;
67181;SDS011;54114;53.524;49.396;2023-04-09T05:50:30;12.50;;;2.55;;
67181;SDS011;54114;53.524;49.396;2023-04-09T05:52:57;10.50;;;2.42;;
67181;SDS011;54114;53.524;49.396;2023-04-09T05:55:24;18.23;;;3.03;;
67181;SDS011;54114;53.524;49.396;2023-04-09T05:57:51;6.75;;;2.42;;
67181;SDS011;54114;53.524;49.396;2023-04-09T06:00:18;6.65;;;1.90;;
67181;SDS011;54114;53.524;49.396;2023-04-09T06:02:46;7.72;;;2.00;;
67181;SDS011;54114;53.524;49.396;2023-04-09T06:05:12;7.85;;;2.22;;
67181;SDS011;54114;53.524;49.396;2023-04-09T06:07:39;9.50;;;2.08;;
67181;SDS011;54114;53.524;49.396;2023-04-09T06:10:06;8.88;;;2.08;;
67181;SDS011;54114;53.524;49.396;2023-04-09T06:12:34;5.65;;;1.62;;
67181;SDS011;54114;53.524;49.396;2023-04-09T06:15:00;2.37;;;1.12;;
67181;SDS011;54114;53.524;49.396;2023-04-09T06:17:29;7.62;;;1.23;;
67181;SDS011;54114;53.524;49.396;2023-04-09T06:19:55;5.43;;;1.15;;
67181;SDS011;54114;53.524;49.396;2023-04-09T06:22:22;4.55;;;1.65;;
67181;SDS011;54114;53.524;49.396;2023-04-09T06:24:49;5.75;;;1.40;;
67181;SDS011;54114;53.524;49.396;2023-04-09T06:27:15;5.22;;;1.48;;
67181;SDS011;54114;53.524;49.396;2023-04-09T06:29:43;2.65;;;1.33;;
67181;SDS011;54114;53.524;49.396;2023-04-09T06:32:10;1.85;;;1.27;;
67181;SDS011;54114;53.524;49.396;2023-04-09T06:34:36;7.40;;;1.60;;
67181;SDS011;54114;53.524;49.396;2023-04-09T06:37:03;2.12;;;1.20;;
67181;SDS011;54114;53.524;49.396;2023-04-09T06:39:30;2.67;;;1.30;;
67181;SDS011;54114;53.524;49.396;2023-04-09T06:41:57;6.35;;;1.20;;
67181;SDS011;54114;53.524;49.396;2023-04-09T06:44:25;2.03;;;1.15;;
67181;SDS011;54114;53.524;49.396;2023-04-09T06:46:51;5.03;;;1.12;;
67181;SDS011;54114;53.524;49.396;2023-04-09T06:49:18;8.95;;;0.70;;
67181;SDS011;54114;53.524;49.396;2023-04-09T06:51:45;5.97;;;0.82;;
67181;SDS011;54114;53.524;49.396;2023-04-09T06:54:12;1.33;;;0.80;;
67181;SDS011;54114;53.524;49.396;2023-04-09T06:56:38;1.27;;;0.77;;
67181;SDS011;54114;53.524;49.396;2023-04-09T06:59:05;4.47;;;1.05;;
67181;SDS011;54114;53.524;49.396;2023-04-09T07:01:32;13.62;;;1.30;;
67181;SDS011;54114;53.524;49.396;2023-04-09T07:04:00;5.50;;;0.88;;
67181;SDS011;54114;53.524;49.396;2023-04-09T07:06:26;3.70;;;1.00;;
67181;SDS011;54114;53.524;49.396;2023-04-09T07:08:53;7.37;;;2.75;;
67181;SDS011;54114;53.524;49.396;2023-04-09T07:11:20;3.28;;;1.27;;
67181;SDS011;54114;53.524;49.396;2023-04-09T07:13:47;5.30;;;1.12;;
67181;SDS011;54114;53.524;49.396;2023-04-09T07:16:14;1.92;;;1.10;;
67181;SDS011;54114;53.524;49.396;2023-04-09T07:18:40;3.12;;;1.20;;
67181;SDS011;54114;53.524;49.396;2023-04-09T07:21:07;1.20;;;0.88;;
67181;SDS011;54114;53.524;49.396;2023-04-09T07:23:34;4.50;;;0.90;;
67181;SDS011;54114;53.524;49.396;2023-04-09T07:26:04;1.62;;;1.05;;
67181;SDS011;54114;53.524;49.396;2023-04-09T07:28:31;1.10;;;0.80;;
67181;SDS011;54114;53.524;49.396;2023-04-09T07:30:58;1.50;;;1.00;;
67181;SDS011;54114;53.524;49.396;2023-04-09T07:33:29;3.75;;;1.00;;
67181;SDS011;54114;53.524;49.396;2023-04-09T07:35:56;3.08;;;1.12;;
67181;SDS011;54114;53.524;49.396;2023-04-09T07:38:22;2.60;;;1.37;;
67181;SDS011;54114;53.524;49.396;2023-04-09T07:40:49;6.22;;;1.50;;
67181;SDS011;54114;53.524;49.396;2023-04-09T07:43:16;1.95;;;1.40;;
67181;SDS011;54114;53.524;49.396;2023-04-09T07:45:43;2.95;;;1.40;;
67181;SDS011;54114;53.524;49.396;2023-04-09T07:48:09;3.00;;;1.40;;
67181;SDS011;54114;53.524;49.396;2023-04-09T07:50:37;2.20;;;1.10;;
67181;SDS011;54114;53.524;49.396;2023-04-09T07:53:03;4.22;;;1.30;;
67181;SDS011;54114;53.524;49.396;2023-04-09T07:55:30;5.55;;;1.48;;
67181;SDS011;54114;53.524;49.396;2023-04-09T07:57:57;8.32;;;1.40;;
67181;SDS011;54114;53.524;49.396;2023-04-09T08:00:24;8.32;;;1.65;;
67181;SDS011;54114;53.524;49.396;2023-04-09T08:02:50;2.72;;;1.17;;
67181;SDS011;54114;53.524;49.396;2023-04-09T08:05:17;3.17;;;1.27;;
67181;SDS011;54114;53.524;49.396;2023-04-09T08:07:44;2.72;;;1.45;;
67181;SDS011;54114;53.524;49.396;2023-04-09T08:10:10;3.85;;;1.20;;
67181;SDS011;54114;53.524;49.396;2023-04-09T08:12:39;1.85;;;1.00;;
67181;SDS011;54114;53.524;49.396;2023-04-09T08:15:06;5.78;;;1.02;;
67181;SDS011;54114;53.524;49.396;2023-04-09T08:17:33;5.32;;;1.50;;
67181;SDS011;54114;53.524;49.396;2023-04-09T08:20:04;5.03;;;1.50;;
67181;SDS011;54114;53.524;49.396;2023-04-09T08:22:31;14.32;;;1.35;;
67181;SDS011;54114;53.524;49.396;2023-04-09T08:24:58;5.40;;;1.50;;
67181;SDS011;54114;53.524;49.396;2023-04-09T08:27:25;4.15;;;1.35;;
67181;SDS011;54114;53.524;49.396;2023-04-09T08:29:52;3.67;;;1.23;;
67181;SDS011;54114;53.524;49.396;2023-04-09T08:32:18;2.95;;;1.45;;
67181;SDS011;54114;53.524;49.396;2023-04-09T08:34:45;5.28;;;1.02;;
67181;SDS011;54114;53.524;49.396;2023-04-09T08:37:12;3.85;;;1.50;;
67181;SDS011;54114;53.524;49.396;2023-04-09T08:39:39;11.98;;;2.50;;
67181;SDS011;54114;53.524;49.396;2023-04-09T08:42:05;1.92;;;1.30;;
67181;SDS011;54114;53.524;49.396;2023-04-09T08:44:33;3.85;;;1.35;;
67181;SDS011;54114;53.524;49.396;2023-04-09T08:47:00;4.15;;;1.30;;
67181;SDS011;54114;53.524;49.396;2023-04-09T08:49:27;1.55;;;1.00;;
67181;SDS011;54114;53.524;49.396;2023-04-09T08:51:54;3.00;;;1.33;;
67181;SDS011;54114;53.524;49.396;2023-04-09T08:54:21;2.60;;;1.45;;
67181;SDS011;54114;53.524;49.396;2023-04-09T08:56:51;3.42;;;1.55;;
67181;SDS011;54114;53.524;49.396;2023-04-09T08:59:17;2.97;;;1.30;;
67181;SDS011;54114;53.524;49.396;2023-04-09T09:01:44;5.00;;;1.42;;
67181;SDS011;54114;53.524;49.396;2023-04-09T09:04:13;3.22;;;1.52;;
67181;SDS011;54114;53.524;49.396;2023-04-09T09:06:40;3.05;;;1.55;;
67181;SDS011;54114;53.524;49.396;2023-04-09T09:11:39;2.28;;;1.30;;
67181;SDS011;54114;53.524;49.396;2023-04-09T09:14:11;14.23;;;1.83;;
67181;SDS011;54114;53.524;49.396;2023-04-09T09:16:41;2.00;;;1.23;;
67181;SDS011;54114;53.524;49.396;2023-04-09T09:21:54;2.58;;;1.20;;
67181;SDS011;54114;53.524;49.396;2023-04-09T09:24:49;13.45;;;1.10;;
67181;SDS011;54114;53.524;49.396;2023-04-09T09:27:36;3.62;;;1.40;;
67181;SDS011;54114;53.524;49.396;2023-04-09T09:30:06;2.37;;;1.33;;
67181;SDS011;54114;53.524;49.396;2023-04-09T09:32:35;3.97;;;1.80;;
67181;SDS011;54114;53.524;49.396;2023-04-09T09:37:29;13.80;;;1.95;;
67181;SDS011;54114;53.524;49.396;2023-04-09T09:39:57;4.32;;;1.70;;
67181;SDS011;54114;53.524;49.396;2023-04-09T09:42:25;7.35;;;1.90;;
67181;SDS011;54114;53.524;49.396;2023-04-09T09:44:53;1.73;;;1.23;;
67181;SDS011;54114;53.524;49.396;2023-04-09T09:47:20;5.22;;;1.60;;
67181;SDS011;54114;53.524;49.396;2023-04-09T09:49:49;2.30;;;1.50;;
67181;SDS011;54114;53.524;49.396;2023-04-09T09:52:20;4.80;;;1.75;;
67181;SDS011;54114;53.524;49.396;2023-04-09T09:54:51;3.28;;;1.77;;
67181;SDS011;54114;53.524;49.396;2023-04-09T09:57:20;3.08;;;1.45;;
67181;SDS011;54114;53.524;49.396;2023-04-09T09:59:52;3.92;;;1.83;;
67181;SDS011;54114;53.524;49.396;2023-04-09T10:02:26;3.70;;;1.25;;
67181;SDS011;54114;53.524;49.396;2023-04-09T10:05:00;3.20;;;1.45;;
67181;SDS011;54114;53.524;49.396;2023-04-09T10:07:29;4.35;;;1.85;;
67181;SDS011;54114;53.524;49.396;2023-04-09T10:09:56;4.93;;;1.90;;
67181;SDS011;54114;53.524;49.396;2023-04-09T10:12:24;7.40;;;1.70;;
67181;SDS011;54114;53.524;49.396;2023-04-09T10:14:51;9.30;;;1.80;;
67181;SDS011;54114;53.524;49.396;2023-04-09T10:17:28;2.78;;;1.42;;
67181;SDS011;54114;53.524;49.396;2023-04-09T10:22:59;3.78;;;1.87;;
67181;SDS011;54114;53.524;49.396;2023-04-09T10:25:36;5.43;;;2.05;;
67181;SDS011;54114;53.524;49.396;2023-04-09T10:28:05;11.52;;;2.12;;
67181;SDS011;54114;53.524;49.396;2023-04-09T10:30:41;4.25;;;1.52;;
67181;SDS011;54114;53.524;49.396;2023-04-09T10:33:12;4.05;;;1.80;;
67181;SDS011;54114;53.524;49.396;2023-04-09T10:35:41;7.30;;;1.58;;
67181;SDS011;54114;53.524;49.396;2023-04-09T10:38:12;7.70;;;2.20;;
67181;SDS011;54114;53.524;49.396;2023-04-09T10:40:40;4.68;;;1.90;;
67181;SDS011;54114;53.524;49.396;2023-04-09T10:43:13;2.83;;;1.73;;
67181;SDS011;54114;53.524;49.396;2023-04-09T10:45:44;3.25;;;1.58;;
67181;SDS011;54114;53.524;49.396;2023-04-09T10:48:13;5.45;;;1.92;;
67181;SDS011;54114;53.524;49.396;2023-04-09T10:50:43;4.62;;;1.73;;
67181;SDS011;54114;53.524;49.396;2023-04-09T10:53:23;2.95;;;1.62;;
67181;SDS011;54114;53.524;49.396;2023-04-09T10:55:51;9.63;;;1.92;;
67181;SDS011;54114;53.524;49.396;2023-04-09T10:58:19;6.43;;;2.10;;
67181;SDS011;54114;53.524;49.396;2023-04-09T11:00:47;4.32;;;1.90;;
67181;SDS011;54114;53.524;49.396;2023-04-09T11:03:22;4.55;;;2.03;;
67181;SDS011;54114;53.524;49.396;2023-04-09T11:06:05;3.65;;;1.87;;
67181;SDS011;54114;53.524;49.396;2023-04-09T11:08:34;5.30;;;2.17;;
67181;SDS011;54114;53.524;49.396;2023-04-09T11:11:02;4.05;;;2.00;;
67181;SDS011;54114;53.524;49.396;2023-04-09T11:13:30;6.87;;;2.30;;
67181;SDS011;54114;53.524;49.396;2023-04-09T11:15:58;3.28;;;1.92;;
67181;SDS011;54114;53.524;49.396;2023-04-09T11:18:28;6.45;;;2.37;;
67181;SDS011;54114;53.524;49.396;2023-04-09T11:20:56;7.05;;;2.22;;
67181;SDS011;54114;53.524;49.396;2023-04-09T11:23:24;4.20;;;2.08;;
67181;SDS011;54114;53.524;49.396;2023-04-09T11:25:51;2.62;;;1.80;;
67181;SDS011;54114;53.524;49.396;2023-04-09T11:28:19;2.78;;;1.60;;
67181;SDS011;54114;53.524;49.396;2023-04-09T11:30:51;5.68;;;1.58;;
67181;SDS011;54114;53.524;49.396;2023-04-09T11:33:18;6.10;;;1.65;;
67181;SDS011;54114;53.524;49.396;2023-04-09T11:35:45;4.03;;;1.80;;
67181;SDS011;54114;53.524;49.396;2023-04-09T11:38:13;7.57;;;1.60;;
67181;SDS011;54114;53.524;49.396;2023-04-09T11:40:40;2.35;;;1.50;;
67181;SDS011;54114;53.524;49.396;2023-04-09T11:43:12;8.60;;;3.05;;
67181;SDS011;54114;53.524;49.396;2023-04-09T11:45:42;14.95;;;2.72;;
67181;SDS011;54114;53.524;49.396;2023-04-09T11:48:12;6.25;;;2.60;;
67181;SDS011;54114;53.524;49.396;2023-04-09T11:50:40;12.70;;;2.85;;
67181;SDS011;54114;53.524;49.396;2023-04-09T11:53:16;8.27;;;2.33;;
67181;SDS011;54114;53.524;49.396;2023-04-09T11:55:50;6.05;;;2.83;;
67181;SDS011;54114;53.524;49.396;2023-04-09T11:58:21;5.97;;;3.08;;
67181;SDS011;54114;53.524;49.396;2023-04-09T12:00:53;4.68;;;2.72;;
67181;SDS011;54114;53.524;49.396;2023-04-09T12:03:26;5.07;;;2.30;;
67181;SDS011;54114;53.524;49.396;2023-04-09T12:05:54;5.78;;;2.42;;
67181;SDS011;54114;53.524;49.396;2023-04-09T12:08:22;4.97;;;2.45;;
67181;SDS011;54114;53.524;49.396;2023-04-09T12:10:51;5.68;;;2.53;;
67181;SDS011;54114;53.524;49.396;2023-04-09T12:13:18;3.90;;;2.40;;
67181;SDS011;54114;53.524;49.396;2023-04-09T12:15:47;4.78;;;2.65;;
67181;SDS011;54114;53.524;49.396;2023-04-09T12:18:14;5.72;;;2.55;;
67181;SDS011;54114;53.524;49.396;2023-04-09T12:20:41;3.47;;;2.30;;
67181;SDS011;54114;53.524;49.396;2023-04-09T12:23:10;5.75;;;2.70;;
67181;SDS011;54114;53.524;49.396;2023-04-09T12:25:38;9.32;;;2.90;;
67181;SDS011;54114;53.524;49.396;2023-04-09T12:28:07;6.07;;;2.60;;
67181;SDS011;54114;53.524;49.396;2023-04-09T12:30:38;4.93;;;2.75;;
67181;SDS011;54114;53.524;49.396;2023-04-09T12:33:05;6.90;;;3.20;;
67181;SDS011;54114;53.524;49.396;2023-04-09T12:35:31;7.15;;;2.58;;
67181;SDS011;54114;53.524;49.396;2023-04-09T12:37:58;4.35;;;2.60;;
67181;SDS011;54114;53.524;49.396;2023-04-09T12:40:25;5.90;;;2.70;;
67181;SDS011;54114;53.524;49.396;2023-04-09T12:42:52;5.60;;;2.87;;
67181;SDS011;54114;53.524;49.396;2023-04-09T12:45:20;4.07;;;2.75;;
67181;SDS011;54114;53.524;49.396;2023-04-09T12:47:47;7.47;;;2.70;;
67181;SDS011;54114;53.524;49.396;2023-04-09T12:50:14;11.32;;;2.72;;
67181;SDS011;54114;53.524;49.396;2023-04-09T12:52:41;4.97;;;2.67;;
67181;SDS011;54114;53.524;49.396;2023-04-09T12:55:09;4.62;;;2.83;;
67181;SDS011;54114;53.524;49.396;2023-04-09T12:57:37;4.97;;;2.78;;
67181;SDS011;54114;53.524;49.396;2023-04-09T13:00:07;7.90;;;3.05;;
67181;SDS011;54114;53.524;49.396;2023-04-09T13:02:34;11.38;;;2.87;;
67181;SDS011;54114;53.524;49.396;2023-04-09T13:05:01;7.85;;;2.80;;
67181;SDS011;54114;53.524;49.396;2023-04-09T13:07:31;9.82;;;2.78;;
67181;SDS011;54114;53.524;49.396;2023-04-09T13:09:58;4.55;;;2.67;;
67181;SDS011;54114;53.524;49.396;2023-04-09T13:12:25;4.90;;;2.67;;
67181;SDS011;54114;53.524;49.396;2023-04-09T13:14:52;6.40;;;2.67;;
67181;SDS011;54114;53.524;49.396;2023-04-09T13:17:19;11.43;;;2.50;;
67181;SDS011;54114;53.524;49.396;2023-04-09T13:19:46;5.90;;;2.50;;
67181;SDS011;54114;53.524;49.396;2023-04-09T13:22:15;4.82;;;2.65;;
67181;SDS011;54114;53.524;49.396;2023-04-09T13:24:43;6.10;;;2.92;;
67181;SDS011;54114;53.524;49.396;2023-04-09T13:27:09;7.03;;;3.08;;
67181;SDS011;54114;53.524;49.396;2023-04-09T13:29:36;6.87;;;3.20;;
67181;SDS011;54114;53.524;49.396;2023-04-09T13:32:03;4.72;;;2.80;;
67181;SDS011;54114;53.524;49.396;2023-04-09T13:34:35;6.37;;;2.75;;
67181;SDS011;54114;53.524;49.396;2023-04-09T13:37:02;4.15;;;3.05;;
67181;SDS011;54114;53.524;49.396;2023-04-09T13:39:29;7.70;;;3.42;;
67181;SDS011;54114;53.524;49.396;2023-04-09T13:41:56;6.05;;;3.03;;
67181;SDS011;54114;53.524;49.396;2023-04-09T13:44:25;5.72;;;3.10;;
67181;SDS011;54114;53.524;49.396;2023-04-09T13:46:53;7.07;;;2.95;;
67181;SDS011;54114;53.524;49.396;2023-04-09T13:49:20;8.10;;;3.10;;
67181;SDS011;54114;53.524;49.396;2023-04-09T13:51:47;4.97;;;2.55;;
67181;SDS011;54114;53.524;49.396;2023-04-09T13:54:15;10.57;;;3.50;;
67181;SDS011;54114;53.524;49.396;2023-04-09T13:56:43;4.43;;;2.65;;
67181;SDS011;54114;53.524;49.396;2023-04-09T13:59:11;6.18;;;3.12;;
67181;SDS011;54114;53.524;49.396;2023-04-09T14:01:37;5.57;;;3.20;;
67181;SDS011;54114;53.524;49.396;2023-04-09T14:04:05;10.05;;;3.62;;
67181;SDS011;54114;53.524;49.396;2023-04-09T14:06:32;11.57;;;3.28;;
67181;SDS011;54114;53.524;49.396;2023-04-09T14:08:59;6.32;;;2.83;;
67181;SDS011;54114;53.524;49.396;2023-04-09T14:11:26;7.00;;;3.28;;
67181;SDS011;54114;53.524;49.396;2023-04-09T14:13:53;5.80;;;2.83;;
67181;SDS011;54114;53.524;49.396;2023-04-09T14:16:20;8.85;;;3.37;;
67181;SDS011;54114;53.524;49.396;2023-04-09T14:18:47;6.72;;;2.83;;
67181;SDS011;54114;53.524;49.396;2023-04-09T14:21:14;6.22;;;3.45;;
67181;SDS011;54114;53.524;49.396;2023-04-09T14:23:42;8.52;;;3.12;;
67181;SDS011;54114;53.524;49.396;2023-04-09T14:26:09;8.65;;;4.57;;
67181;SDS011;54114;53.524;49.396;2023-04-09T14:28:35;4.40;;;3.03;;
67181;SDS011;54114;53.524;49.396;2023-04-09T14:31:02;7.00;;;3.30;;
67181;SDS011;54114;53.524;49.396;2023-04-09T14:33:29;13.07;;;3.65;;
67181;SDS011;54114;53.524;49.396;2023-04-09T14:35:56;6.80;;;3.53;;
67181;SDS011;54114;53.524;49.396;2023-04-09T14:38:23;8.02;;;3.47;;
67181;SDS011;54114;53.524;49.396;2023-04-09T14:40:50;9.20;;;3.42;;
67181;SDS011;54114;53.524;49.396;2023-04-09T14:43:17;6.10;;;3.28;;
67181;SDS011;54114;53.524;49.396;2023-04-09T14:45:43;8.45;;;3.65;;
67181;SDS011;54114;53.524;49.396;2023-04-09T14:48:10;7.53;;;2.97;;
67181;SDS011;54114;53.524;49.396;2023-04-09T14:50:37;6.22;;;3.47;;
67181;SDS011;54114;53.524;49.396;2023-04-09T14:53:04;7.45;;;3.55;;
67181;SDS011;54114;53.524;49.396;2023-04-09T14:55:31;13.55;;;3.55;;
67181;SDS011;54114;53.524;49.396;2023-04-09T14:57:57;9.00;;;3.62;;